createdAt,value
2023-02-17T00:02:19.088Z,2.97
2023-02-17T00:04:45.778Z,3.47
2023-02-17T00:07:12.433Z,3.60
2023-02-17T00:09:39.223Z,3.90
2023-02-17T00:12:06.099Z,3.47
2023-02-17T00:14:32.743Z,4.25
2023-02-17T00:16:59.369Z,3.58
2023-02-17T00:19:26.148Z,3.58
2023-02-17T00:21:58.211Z,3.65
2023-02-17T00:24:26.879Z,4.07
2023-02-17T00:26:53.536Z,3.42
2023-02-17T00:29:20.241Z,4.07
2023-02-17T00:31:47.548Z,4.10
2023-02-17T00:34:14.447Z,4.68
2023-02-17T00:36:41.073Z,3.85
2023-02-17T00:39:07.877Z,3.72
2023-02-17T00:41:35.270Z,4.10
2023-02-17T00:44:01.956Z,3.90
2023-02-17T00:46:28.859Z,3.97
2023-02-17T00:48:55.546Z,3.30
2023-02-17T00:51:22.816Z,3.78
2023-02-17T00:53:49.803Z,3.53
2023-02-17T00:56:16.646Z,3.75
2023-02-17T00:58:43.609Z,3.75
2023-02-17T01:01:11.655Z,3.60
2023-02-17T01:03:38.336Z,3.85
2023-02-17T01:06:08.464Z,3.17
2023-02-17T01:08:35.526Z,3.60
2023-02-17T01:11:02.238Z,3.65
2023-02-17T01:13:28.965Z,4.07
2023-02-17T01:15:55.644Z,3.55
2023-02-17T01:18:24.195Z,3.55
2023-02-17T01:20:51.788Z,3.65
2023-02-17T01:23:18.604Z,4.38
2023-02-17T01:25:47.136Z,4.05
2023-02-17T01:28:20.268Z,3.60
2023-02-17T01:30:47.670Z,4.53
2023-02-17T01:33:14.660Z,5.03
2023-02-17T01:35:41.540Z,4.85
2023-02-17T01:38:08.251Z,3.28
2023-02-17T01:40:34.938Z,4.70
2023-02-17T01:43:01.587Z,4.28
2023-02-17T01:45:45.743Z,4.28
2023-02-17T01:48:16.770Z,4.30
2023-02-17T01:50:52.949Z,4.57
2023-02-17T01:53:24.868Z,3.95
2023-02-17T01:55:52.921Z,4.43
2023-02-17T01:58:23.188Z,4.20
2023-02-17T02:03:19.228Z,4.05
2023-02-17T02:05:45.939Z,4.50
2023-02-17T02:08:13.684Z,4.28
2023-02-17T02:10:40.485Z,4.00
2023-02-17T02:13:08.282Z,4.53
2023-02-17T02:16:03.433Z,4.28
2023-02-17T02:18:40.630Z,4.50
2023-02-17T02:21:40.645Z,4.05
2023-02-17T02:24:30.094Z,4.05
2023-02-17T02:27:13.266Z,4.37
2023-02-17T02:30:06.910Z,4.10
2023-02-17T02:32:48.100Z,4.45
2023-02-17T02:35:22.799Z,4.90
2023-02-17T02:38:10.156Z,4.35
2023-02-17T02:40:41.191Z,4.47
2023-02-17T02:43:08.198Z,4.45
2023-02-17T02:45:35.394Z,4.57
2023-02-17T02:48:02.199Z,4.63
2023-02-17T02:50:59.745Z,4.28
2023-02-17T02:53:48.505Z,4.57
2023-02-17T02:56:30.161Z,4.13
2023-02-17T02:59:20.302Z,4.00
2023-02-17T03:02:16.754Z,3.35
2023-02-17T03:04:52.291Z,3.80
2023-02-17T03:07:28.337Z,4.10
2023-02-17T03:09:57.739Z,3.53
2023-02-17T03:12:25.631Z,5.00
2023-02-17T03:14:58.149Z,4.05
2023-02-17T03:17:24.814Z,3.80
2023-02-17T03:19:51.832Z,4.13
2023-02-17T03:22:28.905Z,3.83
2023-02-17T03:24:55.568Z,3.70
2023-02-17T03:27:22.198Z,4.07
2023-02-17T03:29:48.824Z,3.88
2023-02-17T03:32:15.504Z,4.20
2023-02-17T03:34:42.236Z,3.70
2023-02-17T03:37:08.824Z,3.90
2023-02-17T03:39:35.507Z,4.25
2023-02-17T03:42:02.301Z,4.43
2023-02-17T03:44:28.910Z,3.83
2023-02-17T03:46:55.577Z,4.45
2023-02-17T03:49:22.218Z,3.72
2023-02-17T03:51:48.859Z,4.68
2023-02-17T03:54:15.480Z,4.55
2023-02-17T03:56:42.100Z,4.63
2023-02-17T03:59:08.726Z,5.18
2023-02-17T04:01:35.402Z,4.60
2023-02-17T04:04:02.100Z,4.90
2023-02-17T04:06:28.732Z,4.70
2023-02-17T04:08:55.398Z,4.75
2023-02-17T04:11:22.048Z,4.20
2023-02-17T04:13:48.716Z,4.32
2023-02-17T04:16:15.394Z,4.30
2023-02-17T04:18:42.006Z,5.07
2023-02-17T04:21:08.846Z,4.63
2023-02-17T04:23:38.902Z,4.10
2023-02-17T04:26:07.579Z,4.60
2023-02-17T04:28:37.277Z,4.68
2023-02-17T04:31:04.147Z,4.70
2023-02-17T04:33:30.928Z,4.40
2023-02-17T04:35:59.669Z,4.03
2023-02-17T04:38:27.926Z,4.32
2023-02-17T04:40:56.233Z,4.30
2023-02-17T04:44:15.757Z,4.53
2023-02-17T04:46:42.390Z,4.60
2023-02-17T04:49:09.316Z,4.35
2023-02-17T04:51:36.029Z,5.20
2023-02-17T04:54:02.651Z,4.30
2023-02-17T04:56:29.300Z,3.92
2023-02-17T04:58:55.919Z,4.13
2023-02-17T05:01:22.582Z,4.13
2023-02-17T05:03:49.219Z,4.32
2023-02-17T05:06:15.843Z,4.40
2023-02-17T05:08:42.511Z,4.55
2023-02-17T05:11:09.150Z,3.92
2023-02-17T05:13:35.893Z,4.78
2023-02-17T05:16:02.554Z,5.07
2023-02-17T05:18:29.222Z,4.50
2023-02-17T05:20:55.865Z,4.55
2023-02-17T05:23:22.665Z,4.82
2023-02-17T05:25:49.316Z,5.55
2023-02-17T05:28:15.929Z,4.50
2023-02-17T05:30:42.601Z,4.25
2023-02-17T05:33:09.289Z,4.63
2023-02-17T05:35:36.551Z,5.47
2023-02-17T05:38:03.163Z,4.32
2023-02-17T05:40:29.826Z,5.15
2023-02-17T05:42:56.448Z,5.00
2023-02-17T05:45:23.169Z,5.15
2023-02-17T05:47:49.771Z,4.97
2023-02-17T05:50:16.465Z,5.10
2023-02-17T05:52:43.154Z,4.88
2023-02-17T05:55:09.832Z,5.53
2023-02-17T05:57:36.474Z,5.82
2023-02-17T06:00:04.606Z,4.95
2023-02-17T06:02:31.212Z,4.50
2023-02-17T06:04:57.949Z,5.47
2023-02-17T06:07:24.714Z,5.70
2023-02-17T06:09:51.357Z,5.18
2023-02-17T06:12:17.952Z,6.00
2023-02-17T06:14:44.588Z,6.25
2023-02-17T06:17:11.244Z,5.50
2023-02-17T06:19:37.885Z,6.38
2023-02-17T06:22:04.487Z,6.00
2023-02-17T06:24:31.200Z,6.53
2023-02-17T06:26:57.841Z,6.60
2023-02-17T06:29:24.498Z,6.93
2023-02-17T06:31:51.281Z,6.32
2023-02-17T06:34:17.971Z,6.63
2023-02-17T06:36:44.709Z,8.05
2023-02-17T06:39:11.553Z,6.10
2023-02-17T06:41:38.268Z,5.53
2023-02-17T06:44:04.987Z,5.05
2023-02-17T06:46:31.659Z,4.38
2023-02-17T06:49:00.063Z,5.25
2023-02-17T06:51:27.392Z,5.00
2023-02-17T06:53:54.341Z,5.00
2023-02-17T06:56:21.273Z,5.80
2023-02-17T06:58:48.272Z,4.55
2023-02-17T07:01:21.374Z,5.10
2023-02-17T07:03:48.159Z,4.47
2023-02-17T07:06:15.041Z,4.63
2023-02-17T07:08:41.804Z,5.85
2023-02-17T07:11:10.552Z,4.57
2023-02-17T07:13:37.860Z,4.60
2023-02-17T07:16:05.265Z,4.97
2023-02-17T07:18:32.258Z,5.95
2023-02-17T07:20:59.187Z,5.55
2023-02-17T07:23:26.187Z,5.25
2023-02-17T07:25:52.851Z,4.82
2023-02-17T07:28:19.459Z,5.93
2023-02-17T07:30:46.120Z,5.03
2023-02-17T07:33:12.900Z,6.38
2023-02-17T07:35:46.397Z,5.47
2023-02-17T07:38:13.174Z,5.55
2023-02-17T07:40:39.968Z,5.32
2023-02-17T07:43:06.614Z,5.95
2023-02-17T07:45:33.665Z,6.50
2023-02-17T07:48:00.348Z,6.10
2023-02-17T07:50:27.032Z,5.97
2023-02-17T07:52:53.694Z,5.82
2023-02-17T07:55:20.340Z,5.90
2023-02-17T07:57:46.988Z,5.88
2023-02-17T08:00:14.327Z,5.50
2023-02-17T08:02:41.136Z,5.63
2023-02-17T08:05:07.902Z,5.95
2023-02-17T08:07:34.899Z,6.53
2023-02-17T08:10:20.006Z,6.20
2023-02-17T08:13:05.516Z,6.18
2023-02-17T08:15:34.166Z,5.88
2023-02-17T08:18:01.290Z,5.53
2023-02-17T08:20:28.428Z,5.47
2023-02-17T08:22:55.071Z,5.60
2023-02-17T08:25:21.773Z,6.30
2023-02-17T08:27:48.526Z,6.00
2023-02-17T08:30:15.260Z,6.13
2023-02-17T08:32:41.967Z,5.47
2023-02-17T08:35:09.087Z,5.38
2023-02-17T08:37:35.775Z,6.45
2023-02-17T08:40:02.518Z,5.72
2023-02-17T08:42:31.575Z,5.90
2023-02-17T08:44:58.231Z,6.57
2023-02-17T08:47:24.885Z,6.63
2023-02-17T08:49:51.463Z,6.05
2023-02-17T08:52:18.117Z,6.43
2023-02-17T08:54:44.858Z,6.10
2023-02-17T08:57:11.623Z,6.07
2023-02-17T08:59:38.268Z,6.13
2023-02-17T09:02:05.278Z,5.90
2023-02-17T09:04:31.950Z,7.05
2023-02-17T09:06:58.693Z,6.22
2023-02-17T09:09:29.291Z,6.00
2023-02-17T09:11:57.933Z,6.40
2023-02-17T09:14:25.192Z,6.30
2023-02-17T09:16:52.458Z,6.35
2023-02-17T09:19:19.365Z,5.85
2023-02-17T09:21:46.514Z,6.47
2023-02-17T09:24:13.182Z,5.78
2023-02-17T09:26:40.155Z,6.13
2023-02-17T09:29:07.129Z,6.07
2023-02-17T09:31:35.504Z,6.75
2023-02-17T09:34:03.108Z,5.30
2023-02-17T09:36:32.662Z,5.90
2023-02-17T09:38:59.586Z,5.68
2023-02-17T09:41:41.872Z,5.40
2023-02-17T09:44:17.042Z,5.75
2023-02-17T09:47:02.803Z,6.68
2023-02-17T09:49:51.573Z,5.63
2023-02-17T09:52:27.440Z,5.20
2023-02-17T09:55:03.966Z,5.70
2023-02-17T09:57:49.212Z,5.10
2023-02-17T10:00:32.254Z,5.25
2023-02-17T10:03:17.735Z,5.45
2023-02-17T10:06:09.748Z,5.80
2023-02-17T10:08:53.151Z,5.90
2023-02-17T10:11:39.793Z,5.95
2023-02-17T10:14:31.025Z,6.22
2023-02-17T10:17:06.460Z,5.57
2023-02-17T10:19:41.170Z,5.50
2023-02-17T10:22:16.049Z,5.75
2023-02-17T10:24:42.791Z,6.43
2023-02-17T10:27:22.861Z,7.03
2023-02-17T10:30:02.165Z,6.22
2023-02-17T10:32:30.436Z,6.38
2023-02-17T10:35:03.047Z,5.00
2023-02-17T10:37:48.296Z,5.70
2023-02-17T10:40:22.676Z,5.18
2023-02-17T10:42:52.690Z,5.22
2023-02-17T10:45:34.848Z,5.75
2023-02-17T10:48:22.304Z,4.72
2023-02-17T10:50:49.861Z,4.35
2023-02-17T10:53:25.728Z,4.43
2023-02-17T10:56:02.914Z,4.88
2023-02-17T10:58:36.926Z,5.20
2023-02-17T11:01:06.376Z,4.72
2023-02-17T11:03:34.477Z,4.47
2023-02-17T11:06:04.915Z,4.63
2023-02-17T11:08:33.924Z,4.13
2023-02-17T11:11:07.585Z,4.05
2023-02-17T11:13:43.019Z,3.85
2023-02-17T11:16:29.469Z,3.50
2023-02-17T11:18:56.529Z,3.50
2023-02-17T11:21:23.301Z,3.63
2023-02-17T11:23:55.584Z,3.40
2023-02-17T11:26:25.495Z,3.38
2023-02-17T11:28:52.256Z,3.53
2023-02-17T11:31:31.150Z,3.08
2023-02-17T11:33:57.987Z,3.42
2023-02-17T11:36:29.346Z,3.20
2023-02-17T11:38:56.916Z,3.55
2023-02-17T11:41:23.844Z,3.35
2023-02-17T11:44:00.918Z,3.10
2023-02-17T11:46:36.688Z,3.30
2023-02-17T11:49:39.892Z,2.92
2023-02-17T11:52:15.435Z,3.20
2023-02-17T11:55:16.196Z,3.83
2023-02-17T11:57:50.045Z,3.58
2023-02-17T12:00:37.952Z,3.55
2023-02-17T12:03:16.443Z,3.28
2023-02-17T12:05:51.754Z,3.25
2023-02-17T12:08:48.909Z,3.22
2023-02-17T12:11:37.468Z,3.22
2023-02-17T12:14:22.303Z,3.25
2023-02-17T12:16:59.424Z,3.00
2023-02-17T12:19:57.128Z,3.85
2023-02-17T12:22:46.779Z,3.88
2023-02-17T12:25:26.697Z,4.20
2023-02-17T12:28:02.060Z,3.72
2023-02-17T12:30:56.271Z,3.38
2023-02-17T12:33:45.028Z,4.18
2023-02-17T12:36:15.226Z,4.38
2023-02-17T12:38:54.025Z,3.95
2023-02-17T12:41:31.089Z,3.90
2023-02-17T12:44:07.023Z,4.00
2023-02-17T12:46:43.344Z,3.47
2023-02-17T12:49:15.931Z,4.57
2023-02-17T12:51:53.119Z,3.83
2023-02-17T12:54:43.479Z,3.85
2023-02-17T12:59:39.320Z,3.97
2023-02-17T13:02:24.118Z,3.78
2023-02-17T13:04:53.939Z,3.95
2023-02-17T13:07:49.765Z,4.50
2023-02-17T13:10:36.469Z,4.75
2023-02-17T13:13:28.155Z,4.50
2023-02-17T13:16:11.571Z,4.82
2023-02-17T13:18:41.778Z,4.68
2023-02-17T13:21:20.541Z,4.47
2023-02-17T13:24:02.730Z,3.85
2023-02-17T13:26:35.427Z,4.00
2023-02-17T13:29:33.231Z,3.35
2023-02-17T13:32:03.038Z,4.00
2023-02-17T13:34:34.834Z,3.75
2023-02-17T13:37:17.167Z,4.10
2023-02-17T13:39:43.905Z,3.85
2023-02-17T13:42:40.296Z,3.20
2023-02-17T13:45:25.727Z,3.33
2023-02-17T13:47:54.810Z,3.65
2023-02-17T13:50:38.238Z,3.03
2023-02-17T13:53:32.736Z,3.63
2023-02-17T13:56:02.511Z,3.40
2023-02-17T13:58:32.955Z,3.60
2023-02-17T14:01:01.570Z,4.07
2023-02-17T14:03:33.738Z,3.15
2023-02-17T14:06:01.970Z,3.75
2023-02-17T14:08:40.329Z,3.70
2023-02-17T14:11:16.615Z,4.00
2023-02-17T14:13:46.408Z,3.60
2023-02-17T14:16:32.837Z,3.42
2023-02-17T14:19:06.780Z,3.30
2023-02-17T14:21:34.669Z,3.30
2023-02-17T14:24:01.654Z,3.13
2023-02-17T14:26:49.005Z,2.95
2023-02-17T14:29:16.307Z,3.47
2023-02-17T14:31:45.961Z,3.03
2023-02-17T14:34:34.446Z,3.75
2023-02-17T14:37:24.879Z,3.47
2023-02-17T14:42:18.253Z,3.60
2023-02-17T14:44:45.007Z,3.75
2023-02-17T14:47:11.693Z,3.58
2023-02-17T14:49:38.311Z,3.25
2023-02-17T14:52:19.600Z,3.45
2023-02-17T14:54:46.650Z,3.70
2023-02-17T14:57:14.745Z,3.80
2023-02-17T14:59:42.090Z,4.03
2023-02-17T15:02:17.097Z,3.50
2023-02-17T15:04:43.793Z,3.95
2023-02-17T15:07:13.802Z,4.22
2023-02-17T15:09:41.712Z,4.32
2023-02-17T15:12:17.154Z,3.80
2023-02-17T15:14:44.284Z,3.40
2023-02-17T15:17:10.931Z,3.97
2023-02-17T15:19:37.582Z,3.50
2023-02-17T15:22:04.912Z,3.08
2023-02-17T15:24:34.520Z,3.50
2023-02-17T15:27:03.135Z,3.65
2023-02-17T15:29:30.123Z,4.03
2023-02-17T15:32:00.750Z,3.30
2023-02-17T15:34:31.714Z,3.50
2023-02-17T15:36:59.951Z,3.97
2023-02-17T15:39:26.583Z,3.80
2023-02-17T15:41:56.302Z,3.40
2023-02-17T15:44:25.874Z,3.75
2023-02-17T15:46:55.129Z,3.10
2023-02-17T15:49:22.606Z,3.20
2023-02-17T15:51:49.300Z,2.80
2023-02-17T15:54:19.121Z,3.10
2023-02-17T15:56:48.323Z,2.90
2023-02-17T15:59:20.984Z,3.15
2023-02-17T16:01:47.728Z,3.33
2023-02-17T16:04:15.150Z,3.85
2023-02-17T16:06:42.037Z,3.80
2023-02-17T16:09:09.425Z,3.80
2023-02-17T16:11:41.307Z,3.60
2023-02-17T16:14:11.653Z,3.55
2023-02-17T16:19:04.993Z,3.95
2023-02-17T16:21:31.604Z,4.18
2023-02-17T16:24:00.286Z,3.60
2023-02-17T16:26:33.442Z,4.47
2023-02-17T16:29:02.390Z,4.35
2023-02-17T16:31:32.262Z,5.13
2023-02-17T16:34:00.335Z,3.78
2023-02-17T16:36:32.228Z,3.63
2023-02-17T16:39:02.406Z,3.42
2023-02-17T16:41:29.070Z,2.70
2023-02-17T16:43:55.678Z,2.90
2023-02-17T16:46:29.595Z,3.25
2023-02-17T16:48:57.093Z,3.35
2023-02-17T16:51:23.802Z,2.92
2023-02-17T16:53:50.977Z,3.28
2023-02-17T16:56:37.697Z,3.35
2023-02-17T16:59:04.864Z,3.47
2023-02-17T17:01:32.262Z,4.70
2023-02-17T17:03:58.893Z,3.67
2023-02-17T17:06:28.880Z,3.72
2023-02-17T17:08:55.824Z,3.33
2023-02-17T17:11:25.036Z,3.53
2023-02-17T17:13:52.452Z,3.15
2023-02-17T17:16:24.637Z,3.88
2023-02-17T17:18:51.315Z,3.22
2023-02-17T17:21:20.067Z,4.43
2023-02-17T17:23:47.096Z,4.40
2023-02-17T17:26:30.849Z,2.78
2023-02-17T17:28:58.313Z,2.60
2023-02-17T17:31:25.368Z,3.30
2023-02-17T17:33:52.576Z,3.50
2023-02-17T17:36:21.943Z,3.47
2023-02-17T17:38:49.078Z,3.33
2023-02-17T17:41:15.898Z,4.15
2023-02-17T17:43:45.552Z,3.65
2023-02-17T17:46:18.443Z,3.60
2023-02-17T17:48:45.466Z,3.85
2023-02-17T17:51:18.069Z,3.65
2023-02-17T17:53:45.505Z,5.50
2023-02-17T17:56:27.722Z,4.25
2023-02-17T17:58:55.702Z,4.28
2023-02-17T18:01:23.056Z,3.42
2023-02-17T18:03:50.639Z,3.50
2023-02-17T18:06:26.712Z,3.15
2023-02-17T18:08:56.343Z,3.13
2023-02-17T18:11:24.918Z,4.05
2023-02-17T18:13:54.773Z,3.20
2023-02-17T18:16:24.462Z,3.38
2023-02-17T18:18:51.298Z,3.38
2023-02-17T18:21:18.341Z,2.80
2023-02-17T18:23:45.370Z,2.72
2023-02-17T18:26:12.604Z,3.08
2023-02-17T18:28:40.400Z,4.95
2023-02-17T18:31:08.951Z,4.20
2023-02-17T18:33:35.950Z,3.03
2023-02-17T18:36:08.445Z,3.53
2023-02-17T18:38:35.625Z,3.50
2023-02-17T18:41:02.732Z,19.83
2023-02-17T18:43:29.364Z,14.48
2023-02-17T18:45:56.129Z,10.13
2023-02-17T18:48:22.847Z,9.07
2023-02-17T18:50:50.583Z,5.70
2023-02-17T18:53:17.986Z,5.75
2023-02-17T18:55:44.710Z,4.25
2023-02-17T18:58:12.490Z,3.00
2023-02-17T19:00:39.224Z,4.55
2023-02-17T19:03:05.910Z,3.47
2023-02-17T19:05:32.554Z,2.90
2023-02-17T19:07:59.180Z,3.63
2023-02-17T19:10:25.847Z,3.22
2023-02-17T19:12:52.648Z,3.47
2023-02-17T19:15:20.872Z,3.90
2023-02-17T19:17:48.694Z,3.80
2023-02-17T19:20:16.973Z,2.78
2023-02-17T19:22:43.767Z,3.40
2023-02-17T19:25:10.519Z,3.15
2023-02-17T19:27:39.873Z,3.45
2023-02-17T19:30:08.903Z,3.17
2023-02-17T19:32:35.587Z,3.90
2023-02-17T19:35:02.272Z,3.50
2023-02-17T19:37:28.974Z,4.82
2023-02-17T19:39:55.694Z,3.97
2023-02-17T19:42:22.778Z,3.70
2023-02-17T19:44:49.422Z,4.00
2023-02-17T19:47:16.177Z,3.35
2023-02-17T19:49:42.861Z,4.00
2023-02-17T19:52:10.520Z,4.05
2023-02-17T19:54:37.495Z,3.53
2023-02-17T19:57:04.199Z,4.10
2023-02-17T19:59:33.474Z,3.95
2023-02-17T20:02:00.285Z,3.80
2023-02-17T20:04:27.052Z,4.30
2023-02-17T20:06:54.138Z,4.72
2023-02-17T20:09:22.332Z,4.82
2023-02-17T20:11:52.914Z,4.75
2023-02-17T20:14:20.685Z,4.85
2023-02-17T20:16:48.524Z,3.78
2023-02-17T20:19:15.366Z,4.07
2023-02-17T20:21:44.848Z,3.63
2023-02-17T20:24:14.159Z,3.83
2023-02-17T20:26:43.931Z,3.57
2023-02-17T20:29:11.436Z,3.55
2023-02-17T20:31:39.409Z,3.45
2023-02-17T20:34:07.796Z,3.05
2023-02-17T20:36:34.556Z,3.30
2023-02-17T20:39:01.724Z,3.65
2023-02-17T20:41:28.445Z,3.13
2023-02-17T20:43:55.187Z,2.70
2023-02-17T20:46:27.530Z,2.70
2023-02-17T20:48:54.258Z,3.38
2023-02-17T20:51:21.613Z,2.95
2023-02-17T20:53:48.517Z,3.13
2023-02-17T20:56:20.973Z,3.40
2023-02-17T20:58:48.424Z,2.67
2023-02-17T21:01:15.206Z,2.33
2023-02-17T21:03:41.972Z,2.72
2023-02-17T21:06:28.024Z,3.15
2023-02-17T21:08:58.867Z,2.85
2023-02-17T21:11:26.245Z,2.67
2023-02-17T21:13:53.343Z,2.67
2023-02-17T21:16:24.345Z,2.58
2023-02-17T21:18:51.691Z,3.00
2023-02-17T21:21:18.887Z,2.50
2023-02-17T21:23:45.893Z,3.30
2023-02-17T21:26:13.760Z,2.90
2023-02-17T21:28:41.111Z,2.95
2023-02-17T21:31:07.929Z,2.50
2023-02-17T21:33:41.550Z,2.70
2023-02-17T21:36:10.365Z,2.60
2023-02-17T21:38:37.596Z,2.30
2023-02-17T21:41:06.823Z,2.70
2023-02-17T21:43:52.541Z,2.63
2023-02-17T21:46:19.841Z,2.75
2023-02-17T21:48:46.610Z,2.72
2023-02-17T21:51:13.311Z,2.22
2023-02-17T21:53:40.208Z,2.65
2023-02-17T21:56:08.137Z,2.53
2023-02-17T21:58:35.457Z,2.60
2023-02-17T22:01:02.419Z,2.58
2023-02-17T22:03:29.139Z,2.25
2023-02-17T22:05:55.840Z,2.38
2023-02-17T22:08:23.804Z,2.50
2023-02-17T22:10:50.595Z,2.45
2023-02-17T22:13:17.209Z,2.80
2023-02-17T22:15:43.879Z,2.00
2023-02-17T22:18:10.535Z,2.45
2023-02-17T22:20:37.935Z,2.33
2023-02-17T22:23:04.578Z,2.30
2023-02-17T22:25:31.312Z,2.30
2023-02-17T22:27:58.114Z,2.30
2023-02-17T22:30:24.863Z,2.30
2023-02-17T22:32:51.541Z,2.28
2023-02-17T22:35:20.795Z,2.38
2023-02-17T22:37:47.544Z,2.67
2023-02-17T22:40:14.294Z,2.38
2023-02-17T22:42:40.961Z,2.83
2023-02-17T22:45:07.842Z,2.67
2023-02-17T22:47:34.477Z,2.53
2023-02-17T22:50:01.102Z,2.45
2023-02-17T22:52:27.797Z,2.05
2023-02-17T22:54:54.613Z,2.55
2023-02-17T22:57:21.247Z,2.30
2023-02-17T22:59:47.920Z,2.22
2023-02-17T23:02:14.563Z,2.00
2023-02-17T23:04:41.166Z,2.47
2023-02-17T23:07:08.550Z,2.13
2023-02-17T23:09:35.243Z,1.92
2023-02-17T23:12:01.899Z,2.63
2023-02-17T23:14:31.693Z,2.30
2023-02-17T23:17:01.164Z,2.55
2023-02-17T23:19:29.182Z,2.30
2023-02-17T23:21:58.524Z,2.35
2023-02-17T23:24:26.551Z,2.13
2023-02-17T23:26:55.299Z,2.75
2023-02-17T23:29:22.322Z,2.70
2023-02-17T23:31:49.011Z,2.80
2023-02-17T23:34:16.653Z,2.75
2023-02-17T23:36:44.559Z,3.00
2023-02-17T23:39:11.946Z,2.65
2023-02-17T23:41:39.557Z,2.80
2023-02-17T23:44:09.607Z,3.05
2023-02-17T23:46:37.098Z,2.88
2023-02-17T23:49:04.056Z,3.05
2023-02-17T23:51:30.838Z,2.88
2023-02-17T23:53:57.618Z,2.63
2023-02-17T23:56:35.303Z,3.22
2023-02-17T23:59:02.537Z,2.80
